Time;durP1;ratioP1;P1;durP2;ratioP2;P2;SDS_P1;SDS_P2;PMS_P1;PMS_P2;Temp;Humidity;BMP_temperature;BMP_pressure;BME280_temperature;BME280_humidity;BME280_pressure;Samples;Min_cycle;Max_cycle;Signal;HPM_P1;HPM_P2
2023/08/13 00:02:06;;;;;;;3.00;2.00;;;21.70;99.90;;;;;;4999131;28;20042;-69
2023/08/13 00:04:32;;;;;;;2.22;2.03;;;21.70;99.90;;;;;;4990836;28;20033;-69
2023/08/13 00:07:00;;;;;;;2.28;1.83;;;21.60;99.90;;;;;;4992144;28;20030;-69
2023/08/13 00:09:26;;;;;;;2.03;1.83;;;21.60;99.90;;;;;;4989129;28;20034;-69
2023/08/13 00:11:53;;;;;;;2.30;2.10;;;21.50;99.90;;;;;;4989118;28;20034;-70
2023/08/13 00:14:19;;;;;;;2.03;1.83;;;21.50;99.90;;;;;;4987285;28;20041;-70
2023/08/13 00:16:47;;;;;;;2.05;1.90;;;21.50;99.90;;;;;;4982737;28;20142;-69
2023/08/13 00:19:13;;;;;;;2.10;1.83;;;21.40;99.90;;;;;;4995577;28;20803;-70
2023/08/13 00:21:39;;;;;;;3.67;2.05;;;21.30;99.90;;;;;;4992123;28;20451;-70
2023/08/13 00:24:05;;;;;;;2.38;1.90;;;21.30;99.90;;;;;;4993217;28;20045;-69
2023/08/13 00:26:31;;;;;;;2.25;1.90;;;21.20;99.90;;;;;;4990662;28;20049;-69
2023/08/13 00:28:56;;;;;;;2.25;2.05;;;21.10;99.90;;;;;;4992456;28;20038;-69
2023/08/13 00:31:22;;;;;;;2.17;1.65;;;21.10;99.90;;;;;;4964324;28;20026;-69
2023/08/13 00:33:48;;;;;;;2.25;1.75;;;21.00;99.90;;;;;;4972188;28;20694;-69
2023/08/13 00:36:15;;;;;;;3.30;2.08;;;21.00;99.90;;;;;;4987839;28;20031;-69
2023/08/13 00:38:41;;;;;;;3.33;2.00;;;21.00;99.90;;;;;;4978551;28;20030;-69
2023/08/13 00:41:07;;;;;;;2.45;2.25;;;21.00;99.90;;;;;;4996982;28;20034;-70
2023/08/13 00:43:33;;;;;;;2.28;2.05;;;20.90;99.90;;;;;;4980442;28;20037;-69
2023/08/13 00:46:00;;;;;;;1.98;1.88;;;20.80;99.90;;;;;;4984355;28;20033;-69
2023/08/13 00:48:26;;;;;;;2.95;1.80;;;20.80;99.90;;;;;;4977508;28;20083;-69
2023/08/13 00:50:52;;;;;;;2.17;1.98;;;20.80;99.90;;;;;;4970169;28;20045;-69
2023/08/13 00:53:18;;;;;;;2.10;1.92;;;20.70;99.90;;;;;;4990223;28;20038;-69
2023/08/13 00:55:44;;;;;;;2.17;1.98;;;20.70;99.90;;;;;;4996545;28;20032;-69
2023/08/13 00:58:10;;;;;;;2.13;1.92;;;20.70;99.90;;;;;;4979503;28;20409;-69
2023/08/13 01:00:36;;;;;;;2.35;2.15;;;20.70;99.90;;;;;;4997633;28;20045;-69
2023/08/13 01:03:02;;;;;;;1.73;1.63;;;20.70;99.90;;;;;;4976594;28;20045;-69
2023/08/13 01:05:51;;;;;;;2.05;1.85;;;20.70;99.90;;;;;;4988270;28;20045;-69
2023/08/13 01:08:34;;;;;;;2.95;2.22;;;20.70;99.90;;;;;;4990788;28;20038;-69
2023/08/13 01:11:17;;;;;;;2.65;2.40;;;20.70;99.90;;;;;;4985975;28;20076;-69
2023/08/13 01:13:53;;;;;;;3.13;2.30;;;20.80;99.90;;;;;;4961707;28;20038;-69
2023/08/13 01:16:19;;;;;;;;;;;20.90;99.90;;;;;;4982923;28;20064;-69
2023/08/13 01:18:45;;;;;;;1.85;1.75;;;20.90;99.90;;;;;;4980023;28;20003;-69
2023/08/13 01:21:10;;;;;;;2.17;1.98;;;21.00;99.90;;;;;;4993075;28;20473;-69
2023/08/13 01:23:36;;;;;;;2.30;2.10;;;21.00;99.90;;;;;;4972679;28;20755;-69
2023/08/13 01:26:12;;;;;;;2.53;2.20;;;21.10;99.90;;;;;;4975812;28;20556;-69
2023/08/13 01:28:59;;;;;;;3.00;2.50;;;21.10;99.90;;;;;;4985409;28;20041;-69
2023/08/13 01:31:30;;;;;;;3.00;2.47;;;21.10;99.90;;;;;;4979810;28;20116;-69
2023/08/13 01:33:58;;;;;;;3.22;2.70;;;21.10;99.90;;;;;;4996672;28;20095;-69
2023/08/13 01:36:25;;;;;;;2.80;2.55;;;21.20;99.90;;;;;;4971142;28;20038;-69
2023/08/13 01:38:53;;;;;;;2.38;2.15;;;21.20;99.90;;;;;;4995944;28;20030;-69
2023/08/13 01:41:18;;;;;;;4.13;2.13;;;21.20;99.90;;;;;;4994519;28;20033;-69
2023/08/13 01:43:44;;;;;;;3.17;2.28;;;21.20;99.90;;;;;;4972259;28;20058;-69
2023/08/13 01:46:10;;;;;;;3.75;2.22;;;21.20;99.90;;;;;;4970036;28;20053;-69
2023/08/13 01:48:36;;;;;;;1.70;1.60;;;21.20;99.90;;;;;;4982882;28;20045;-69
2023/08/13 01:51:01;;;;;;;2.20;2.10;;;21.20;99.90;;;;;;4983244;28;20405;-69
2023/08/13 01:53:27;;;;;;;2.72;2.35;;;21.20;99.90;;;;;;4974751;28;20823;-69
2023/08/13 01:55:53;;;;;;;2.10;1.90;;;21.10;99.90;;;;;;4993071;28;20156;-69
2023/08/13 01:58:19;;;;;;;2.10;1.90;;;21.10;99.90;;;;;;4976424;28;20129;-69
2023/08/13 02:00:44;;;;;;;2.30;1.70;;;21.10;99.90;;;;;;4972968;28;20034;-69
2023/08/13 02:03:10;;;;;;;2.28;2.08;;;21.00;99.90;;;;;;4991659;28;20038;-69
2023/08/13 02:05:36;;;;;;;1.92;1.83;;;21.00;99.90;;;;;;4981317;28;20042;-69
2023/08/13 02:08:02;;;;;;;3.08;1.80;;;20.90;99.90;;;;;;4979540;28;20050;-68
2023/08/13 02:10:28;;;;;;;2.35;2.15;;;20.80;99.90;;;;;;4975207;28;20060;-69
2023/08/13 02:12:54;;;;;;;5.18;1.90;;;20.80;99.90;;;;;;5000631;28;20038;-69
2023/08/13 02:15:20;;;;;;;2.10;1.90;;;20.70;99.90;;;;;;4989952;28;20419;-69
2023/08/13 02:17:46;;;;;;;2.60;2.10;;;20.70;99.90;;;;;;4976569;28;20117;-69
2023/08/13 02:20:12;;;;;;;1.83;1.60;;;20.60;99.90;;;;;;4987862;28;20069;-70
2023/08/13 02:22:38;;;;;;;5.40;2.17;;;20.60;99.90;;;;;;4990991;28;20570;-69
2023/08/13 02:25:04;;;;;;;2.20;2.00;;;20.50;99.90;;;;;;5001626;28;20116;-68
2023/08/13 02:27:30;;;;;;;2.33;1.88;;;20.40;99.90;;;;;;4962982;28;20038;-69
2023/08/13 02:29:56;;;;;;;2.20;2.00;;;20.40;99.90;;;;;;4998217;28;20396;-69
2023/08/13 02:32:24;;;;;;;2.03;1.83;;;20.30;99.90;;;;;;4972362;28;20112;-69
2023/08/13 02:34:49;;;;;;;3.13;2.10;;;20.30;99.90;;;;;;4989064;28;20738;-69
2023/08/13 02:37:15;;;;;;;2.40;1.80;;;20.20;99.90;;;;;;4988112;28;20066;-69
2023/08/13 02:39:41;;;;;;;5.20;2.00;;;20.20;99.90;;;;;;4973454;28;20037;-69
2023/08/13 02:42:07;;;;;;;3.20;1.83;;;20.10;99.90;;;;;;4980066;28;20312;-69
2023/08/13 02:44:32;;;;;;;3.42;2.20;;;20.10;99.90;;;;;;4984349;28;20041;-69
2023/08/13 02:46:58;;;;;;;2.13;1.92;;;20.10;99.90;;;;;;4979261;28;20156;-69
2023/08/13 02:49:25;;;;;;;2.17;1.85;;;20.00;99.90;;;;;;4989893;28;20034;-69
2023/08/13 02:51:50;;;;;;;3.22;2.00;;;20.00;99.90;;;;;;4969839;28;20046;-69
2023/08/13 02:54:16;;;;;;;2.20;2.00;;;19.90;99.90;;;;;;4987934;28;20039;-69
2023/08/13 02:56:42;;;;;;;3.20;2.00;;;19.90;99.90;;;;;;4990358;28;20085;-69
2023/08/13 02:59:08;;;;;;;2.10;1.90;;;19.90;99.90;;;;;;4989063;28;20049;-69
2023/08/13 03:01:34;;;;;;;2.17;1.98;;;19.90;99.90;;;;;;4975054;28;20040;-69
2023/08/13 03:04:03;;;;;;;2.08;1.88;;;19.80;99.90;;;;;;4998204;28;20040;-69
2023/08/13 03:06:29;;;;;;;3.53;2.08;;;19.80;99.90;;;;;;4990500;28;20879;-69
2023/08/13 03:08:55;;;;;;;3.10;1.90;;;19.80;99.90;;;;;;4988332;28;20085;-69
2023/08/13 03:11:21;;;;;;;2.45;2.15;;;19.70;99.90;;;;;;4990648;28;20033;-69
2023/08/13 03:13:47;;;;;;;3.55;2.10;;;19.70;99.90;;;;;;4989876;28;20058;-69
2023/08/13 03:16:15;;;;;;;2.30;2.10;;;19.60;99.90;;;;;;4976025;28;20025;-69
2023/08/13 03:18:42;;;;;;;3.47;2.10;;;19.60;99.90;;;;;;4975514;28;20030;-69
2023/08/13 03:21:12;;;;;;;2.30;1.92;;;19.60;99.90;;;;;;4995696;28;20044;-69
2023/08/13 03:23:37;;;;;;;3.45;2.20;;;19.60;99.90;;;;;;4972027;28;20813;-69
2023/08/13 03:26:04;;;;;;;3.25;2.30;;;19.50;99.90;;;;;;4977385;28;20760;-69
2023/08/13 03:28:30;;;;;;;2.53;2.10;;;19.50;99.90;;;;;;4974567;28;20038;-69
2023/08/13 03:31:02;;;;;;;2.33;1.90;;;19.50;99.90;;;;;;4972856;28;20500;-69
2023/08/13 03:33:40;;;;;;;2.38;1.90;;;19.40;99.90;;;;;;4964803;28;20088;-68
2023/08/13 03:36:06;;;;;;;2.95;2.08;;;19.40;99.90;;;;;;4979206;28;20042;-69
2023/08/13 03:38:34;;;;;;;2.20;2.00;;;19.40;99.90;;;;;;4978489;28;20124;-69
2023/08/13 03:41:00;;;;;;;3.05;2.42;;;19.30;99.90;;;;;;4990198;28;20116;-69
2023/08/13 03:43:27;;;;;;;2.67;2.45;;;19.30;99.90;;;;;;4974398;28;20175;-69
2023/08/13 03:45:52;;;;;;;3.10;2.13;;;19.30;99.90;;;;;;4988372;28;20052;-69
2023/08/13 03:48:18;;;;;;;2.28;2.08;;;19.30;99.90;;;;;;4969400;28;20034;-69
2023/08/13 03:50:44;;;;;;;2.38;2.17;;;19.30;99.90;;;;;;4965249;28;20049;-69
2023/08/13 03:53:11;;;;;;;3.58;2.53;;;19.30;99.90;;;;;;4990752;28;20034;-69
2023/08/13 03:55:37;;;;;;;2.50;2.03;;;19.30;99.90;;;;;;4976810;28;20038;-69
2023/08/13 03:58:05;;;;;;;3.03;2.45;;;19.30;99.90;;;;;;4974845;28;20081;-69
2023/08/13 04:00:32;;;;;;;2.35;2.00;;;19.30;99.90;;;;;;4989227;28;20061;-69
2023/08/13 04:02:58;;;;;;;2.90;2.22;;;19.30;99.90;;;;;;4975605;28;20037;-69
2023/08/13 04:05:24;;;;;;;2.03;1.83;;;19.30;99.90;;;;;;4989578;28;20137;-69
2023/08/13 04:07:49;;;;;;;2.55;2.30;;;19.30;99.90;;;;;;4970018;28;20037;-69
2023/08/13 04:10:15;;;;;;;2.78;2.05;;;19.30;99.90;;;;;;4991023;28;20038;-69
2023/08/13 04:12:43;;;;;;;2.80;2.50;;;19.30;99.90;;;;;;4987653;28;20026;-69
2023/08/13 04:15:09;;;;;;;4.32;2.63;;;19.30;99.90;;;;;;4958602;28;20849;-69
2023/08/13 04:17:37;;;;;;;3.50;2.55;;;19.30;99.90;;;;;;4965286;28;20598;-69
2023/08/13 04:20:05;;;;;;;2.60;2.30;;;19.20;99.90;;;;;;4969705;28;20031;-69
2023/08/13 04:22:31;;;;;;;2.70;2.38;;;19.20;99.90;;;;;;4985775;28;20038;-69
2023/08/13 04:24:57;;;;;;;2.67;2.25;;;19.20;99.90;;;;;;4978327;28;20026;-69
2023/08/13 04:27:24;;;;;;;2.60;2.40;;;19.20;99.90;;;;;;4978743;28;20026;-69
2023/08/13 04:29:51;;;;;;;2.78;2.40;;;19.30;99.90;;;;;;4985039;28;20121;-69
2023/08/13 04:32:16;;;;;;;4.13;2.90;;;19.30;99.90;;;;;;4976530;28;20505;-69
2023/08/13 04:34:43;;;;;;;4.38;2.80;;;19.30;99.90;;;;;;4976280;28;20876;-69
2023/08/13 04:37:08;;;;;;;2.92;2.60;;;19.40;99.90;;;;;;4993465;28;20033;-68
2023/08/13 04:39:36;;;;;;;3.30;3.00;;;19.40;99.90;;;;;;4973640;28;20030;-69
2023/08/13 04:42:02;;;;;;;2.83;2.58;;;19.40;99.90;;;;;;4967017;28;20463;-69
2023/08/13 04:44:29;;;;;;;2.90;2.70;;;19.50;99.90;;;;;;4967373;28;20034;-69
2023/08/13 04:46:57;;;;;;;3.40;3.10;;;19.50;99.90;;;;;;4980892;28;20132;-69
2023/08/13 04:49:24;;;;;;;3.00;2.70;;;19.60;99.90;;;;;;4971246;28;20834;-69
2023/08/13 04:51:49;;;;;;;3.33;2.95;;;19.60;99.90;;;;;;4972926;28;20041;-69
2023/08/13 04:54:15;;;;;;;4.30;3.25;;;19.70;99.90;;;;;;4971003;28;20030;-69
2023/08/13 04:56:42;;;;;;;4.13;3.20;;;19.70;99.90;;;;;;4986524;28;20054;-69
2023/08/13 04:59:08;;;;;;;3.70;3.30;;;19.80;99.90;;;;;;4975121;28;20108;-69
2023/08/13 05:01:35;;;;;;;3.95;3.45;;;19.90;99.90;;;;;;4971247;28;20184;-69
2023/08/13 05:04:02;;;;;;;5.00;3.33;;;19.90;99.90;;;;;;4982168;28;20117;-69
2023/08/13 05:06:32;;;;;;;4.80;3.50;;;20.00;99.90;;;;;;4977048;28;20038;-69
2023/08/13 05:08:59;;;;;;;3.33;3.00;;;20.00;99.90;;;;;;4978678;28;20521;-69
2023/08/13 05:11:26;;;;;;;3.88;3.35;;;20.00;99.90;;;;;;4970552;28;20057;-69
2023/08/13 05:13:51;;;;;;;4.18;3.78;;;20.10;99.90;;;;;;4970958;28;20065;-69
2023/08/13 05:16:19;;;;;;;3.30;3.00;;;20.20;99.90;;;;;;4974221;28;20430;-69
2023/08/13 05:18:46;;;;;;;7.80;3.30;;;20.20;99.90;;;;;;4968099;28;20541;-69
2023/08/13 05:21:14;;;;;;;5.15;3.33;;;20.20;99.90;;;;;;4978847;28;20156;-69
2023/08/13 05:23:40;;;;;;;3.45;3.15;;;20.20;99.90;;;;;;4996787;28;20159;-69
2023/08/13 05:26:06;;;;;;;4.00;3.10;;;20.30;99.90;;;;;;4977874;28;20088;-69
2023/08/13 05:28:33;;;;;;;3.78;2.95;;;20.30;99.90;;;;;;4983985;28;20037;-69
2023/08/13 05:31:03;;;;;;;2.72;2.50;;;20.40;99.90;;;;;;4970937;28;20038;-69
2023/08/13 05:33:29;;;;;;;2.72;2.53;;;20.40;99.90;;;;;;4972350;28;20056;-69
2023/08/13 05:35:54;;;;;;;3.13;2.88;;;20.50;99.90;;;;;;4977157;28;20577;-70
2023/08/13 05:38:20;;;;;;;4.05;2.75;;;20.50;99.90;;;;;;4979673;28;20042;-69
2023/08/13 05:40:47;;;;;;;4.60;2.75;;;20.60;99.90;;;;;;4978082;28;20034;-69
2023/08/13 05:43:13;;;;;;;3.25;2.70;;;20.60;99.90;;;;;;4977008;28;20065;-69
2023/08/13 05:45:41;;;;;;;2.95;2.47;;;20.70;99.90;;;;;;4978869;28;20415;-69
2023/08/13 05:48:07;;;;;;;3.25;2.55;;;20.70;99.90;;;;;;4992412;28;20128;-69
2023/08/13 05:50:33;;;;;;;2.90;2.60;;;20.60;99.90;;;;;;4993936;28;20033;-69
2023/08/13 05:52:59;;;;;;;4.20;2.92;;;20.70;99.90;;;;;;4986777;28;20549;-68
2023/08/13 05:55:24;;;;;;;3.60;2.55;;;20.70;99.90;;;;;;4987562;28;20022;-69
2023/08/13 05:57:50;;;;;;;3.53;2.70;;;20.60;99.90;;;;;;5000481;28;20103;-69
2023/08/13 06:00:17;;;;;;;2.20;1.98;;;20.70;99.90;;;;;;4977018;28;20494;-69
2023/08/13 06:02:42;;;;;;;2.70;2.15;;;20.60;99.90;;;;;;4989915;28;20029;-69
2023/08/13 06:05:08;;;;;;;5.50;2.22;;;20.60;99.90;;;;;;4974301;28;20037;-69
2023/08/13 06:07:34;;;;;;;4.07;2.50;;;20.70;99.90;;;;;;4988124;28;20034;-70
2023/08/13 06:10:01;;;;;;;2.72;2.47;;;20.70;99.90;;;;;;4990415;28;20018;-69
2023/08/13 06:12:27;;;;;;;2.28;2.08;;;20.70;99.90;;;;;;4994670;28;20215;-69
2023/08/13 06:14:53;;;;;;;4.15;2.25;;;20.70;99.90;;;;;;4996296;28;20038;-69
2023/08/13 06:17:19;;;;;;;4.28;2.85;;;20.80;99.90;;;;;;4997591;28;20030;-69
2023/08/13 06:19:45;;;;;;;4.00;2.25;;;20.90;99.90;;;;;;4993193;28;20034;-69
2023/08/13 06:22:11;;;;;;;4.15;2.15;;;21.00;99.90;;;;;;4974208;28;20044;-69
2023/08/13 06:24:37;;;;;;;3.65;2.33;;;21.00;99.90;;;;;;4989863;28;20038;-69
2023/08/13 06:27:03;;;;;;;4.18;2.45;;;21.20;99.90;;;;;;4987815;28;20137;-69
2023/08/13 06:29:28;;;;;;;2.75;2.00;;;21.30;99.90;;;;;;4987508;28;20037;-69
2023/08/13 06:31:55;;;;;;;4.88;2.30;;;21.40;99.90;;;;;;4992020;28;20073;-69
2023/08/13 06:34:21;;;;;;;2.22;1.88;;;21.50;99.90;;;;;;4993680;28;20033;-69
2023/08/13 06:36:46;;;;;;;2.03;1.80;;;21.60;99.90;;;;;;4993078;28;20081;-70
2023/08/13 06:39:13;;;;;;;4.50;1.65;;;21.70;99.90;;;;;;4998735;28;20811;-70
2023/08/13 06:41:39;;;;;;;7.53;1.83;;;21.80;99.90;;;;;;4983532;28;20049;-70
2023/08/13 06:44:06;;;;;;;3.20;1.67;;;21.80;99.90;;;;;;4972728;28;20034;-69
2023/08/13 06:46:32;;;;;;;2.65;1.50;;;21.80;99.90;;;;;;4990802;28;20046;-69
2023/08/13 06:48:58;;;;;;;4.28;1.98;;;21.90;99.90;;;;;;4988853;28;20096;-69
2023/08/13 06:51:23;;;;;;;5.47;1.73;;;21.90;99.90;;;;;;4997776;28;20727;-69
2023/08/13 06:53:49;;;;;;;3.97;1.75;;;22.00;99.90;;;;;;4993413;28;20036;-70
2023/08/13 06:56:15;;;;;;;2.60;1.73;;;22.10;99.90;;;;;;4991030;28;20038;-70
2023/08/13 06:58:41;;;;;;;4.28;2.17;;;22.20;99.90;;;;;;4990297;28;20038;-69
2023/08/13 07:01:06;;;;;;;3.05;1.63;;;22.20;99.90;;;;;;4993185;28;20042;-70
2023/08/13 07:03:32;;;;;;;3.65;1.60;;;22.30;99.90;;;;;;4986626;28;20037;-70
2023/08/13 07:05:58;;;;;;;3.28;1.50;;;22.30;99.90;;;;;;4990426;28;20042;-70
2023/08/13 07:08:25;;;;;;;4.30;1.80;;;22.30;99.90;;;;;;4988963;28;20049;-70
2023/08/13 07:10:51;;;;;;;3.15;1.73;;;22.30;99.90;;;;;;4975509;28;20415;-70
2023/08/13 07:13:16;;;;;;;4.53;1.80;;;22.40;99.90;;;;;;4985349;28;20041;-69
2023/08/13 07:15:42;;;;;;;3.40;1.52;;;22.60;99.90;;;;;;4990680;28;20030;-70
2023/08/13 07:18:08;;;;;;;4.47;1.65;;;22.80;99.90;;;;;;4985373;28;20037;-69
2023/08/13 07:20:33;;;;;;;4.47;1.70;;;22.90;99.90;;;;;;4984453;28;20618;-70
2023/08/13 07:23:00;;;;;;;3.75;1.85;;;23.00;99.90;;;;;;4983524;28;20121;-69
2023/08/13 07:25:26;;;;;;;7.03;1.80;;;23.00;99.90;;;;;;4988269;28;20031;-70
2023/08/13 07:27:53;;;;;;;5.80;1.70;;;23.00;99.90;;;;;;4994439;28;20490;-70
2023/08/13 07:30:19;;;;;;;2.97;1.65;;;23.00;99.90;;;;;;4989957;28;20034;-70
2023/08/13 07:32:45;;;;;;;3.22;1.40;;;23.10;99.90;;;;;;4990621;28;20069;-70
2023/08/13 07:35:12;;;;;;;6.85;1.50;;;23.20;99.90;;;;;;4988934;28;20117;-70
2023/08/13 07:37:38;;;;;;;4.20;1.67;;;23.30;99.70;;;;;;4991299;28;20545;-70
2023/08/13 07:40:07;;;;;;;5.70;1.55;;;23.30;99.80;;;;;;4987062;28;20034;-70
2023/08/13 07:42:34;;;;;;;3.92;1.75;;;23.30;99.90;;;;;;4993302;28;20078;-70
2023/08/13 07:45:01;;;;;;;3.65;1.73;;;23.40;99.90;;;;;;4995007;28;20030;-69
2023/08/13 07:47:27;;;;;;;4.30;1.70;;;23.40;99.70;;;;;;4983878;28;20049;-69
2023/08/13 07:49:52;;;;;;;5.22;1.60;;;23.30;99.30;;;;;;4976842;28;20399;-70
2023/08/13 07:52:18;;;;;;;5.75;1.30;;;23.30;99.20;;;;;;4984629;28;20035;-70
2023/08/13 07:54:44;;;;;;;5.15;1.55;;;23.20;99.90;;;;;;4988587;28;20129;-70
2023/08/13 07:57:10;;;;;;;4.53;1.52;;;23.20;99.90;;;;;;4990515;28;20046;-70
2023/08/13 07:59:36;;;;;;;6.40;1.65;;;23.30;99.40;;;;;;4985543;28;20522;-70
2023/08/13 08:02:03;;;;;;;5.95;1.70;;;23.30;99.70;;;;;;4995467;28;20099;-70
2023/08/13 08:04:29;;;;;;;3.92;1.77;;;23.30;99.20;;;;;;4990631;28;20122;-70
2023/08/13 08:06:55;;;;;;;6.28;1.80;;;23.40;99.20;;;;;;4996497;28;20077;-69
2023/08/13 08:09:21;;;;;;;7.78;1.60;;;23.40;98.70;;;;;;4988909;28;20459;-70
2023/08/13 08:11:47;;;;;;;4.82;1.50;;;23.40;97.10;;;;;;4988635;28;20038;-70
2023/08/13 08:14:12;;;;;;;8.52;2.22;;;23.50;97.50;;;;;;4986200;28;20041;-70
2023/08/13 08:16:38;;;;;;;4.20;1.60;;;23.50;96.60;;;;;;4984873;28;20038;-70
2023/08/13 08:19:04;;;;;;;2.65;1.42;;;23.50;96.10;;;;;;4989324;28;20046;-70
2023/08/13 08:21:31;;;;;;;4.32;1.90;;;23.50;96.10;;;;;;4975839;28;20186;-70
2023/08/13 08:23:57;;;;;;;5.75;1.75;;;23.50;97.00;;;;;;4992491;28;20034;-70
2023/08/13 08:26:23;;;;;;;7.70;1.98;;;23.70;97.20;;;;;;4988545;28;20035;-70
2023/08/13 08:28:49;;;;;;;6.88;1.70;;;23.70;96.30;;;;;;4993504;28;20128;-70
2023/08/13 08:31:15;;;;;;;5.40;1.73;;;23.70;96.00;;;;;;4990834;28;20409;-69
2023/08/13 08:33:41;;;;;;;5.82;1.67;;;23.70;96.00;;;;;;4976148;28;20092;-70
2023/08/13 08:36:06;;;;;;;3.72;1.30;;;23.70;95.10;;;;;;4988589;28;20033;-70
2023/08/13 08:38:32;;;;;;;5.28;1.58;;;23.70;95.10;;;;;;4992558;28;20113;-70
2023/08/13 08:40:59;;;;;;;3.83;1.50;;;23.80;94.90;;;;;;5001269;28;20077;-70
2023/08/13 08:43:30;;;;;;;6.50;1.70;;;23.90;94.10;;;;;;4993198;28;20034;-70
2023/08/13 08:46:00;;;;;;;6.78;1.83;;;23.90;94.50;;;;;;4981437;28;20124;-70
2023/08/13 08:48:32;;;;;;;4.05;1.60;;;24.00;94.00;;;;;;4980220;28;20128;-70
2023/08/13 08:50:58;;;;;;;8.43;1.95;;;24.10;93.60;;;;;;4986110;28;20038;-70
2023/08/13 08:53:25;;;;;;;5.47;1.83;;;24.10;94.00;;;;;;4988376;28;20104;-69
2023/08/13 08:55:52;;;;;;;3.35;1.60;;;24.10;93.20;;;;;;4993405;28;20066;-70
2023/08/13 08:58:17;;;;;;;4.20;1.63;;;24.10;93.50;;;;;;4998942;28;20046;-70
2023/08/13 09:00:43;;;;;;;4.82;1.73;;;24.20;94.60;;;;;;4993773;28;20046;-69
2023/08/13 09:03:09;;;;;;;4.13;1.52;;;24.30;94.00;;;;;;4980690;28;20042;-69
2023/08/13 09:05:38;;;;;;;4.20;1.90;;;24.40;94.50;;;;;;4989334;28;20507;-69
2023/08/13 09:08:12;;;;;;;3.33;1.60;;;24.50;93.50;;;;;;4984865;28;20103;-69
2023/08/13 09:10:42;;;;;;;5.32;1.73;;;24.50;94.20;;;;;;4989298;28;20042;-69
2023/08/13 09:13:08;;;;;;;4.72;1.58;;;24.70;93.10;;;;;;5002444;28;20058;-69
2023/08/13 09:15:34;;;;;;;4.93;1.77;;;24.70;92.10;;;;;;5000546;28;20500;-69
2023/08/13 09:18:00;;;;;;;3.58;1.85;;;24.80;91.80;;;;;;4995412;28;20029;-69
2023/08/13 09:20:26;;;;;;;5.22;1.98;;;24.90;92.00;;;;;;4992231;28;20383;-69
2023/08/13 09:22:52;;;;;;;6.07;2.25;;;24.90;91.30;;;;;;4991904;28;20027;-69
2023/08/13 09:25:19;;;;;;;7.43;1.88;;;25.00;90.30;;;;;;4967546;28;20825;-68
2023/08/13 09:27:46;;;;;;;3.70;1.73;;;25.00;89.50;;;;;;4966974;28;20043;-68
2023/08/13 09:30:19;;;;;;;5.18;1.63;;;25.00;90.00;;;;;;4994644;28;20026;-68
2023/08/13 09:32:47;;;;;;;7.35;1.73;;;25.00;89.20;;;;;;4993101;28;20139;-68
2023/08/13 09:35:13;;;;;;;3.97;1.70;;;25.10;91.10;;;;;;4993953;28;20034;-68
2023/08/13 09:37:39;;;;;;;3.70;1.70;;;25.30;86.40;;;;;;4991060;28;20104;-68
2023/08/13 09:40:06;;;;;;;9.07;2.10;;;25.20;87.30;;;;;;4988602;28;20611;-68
2023/08/13 09:42:33;;;;;;;5.03;1.60;;;25.30;87.90;;;;;;4976581;28;20046;-68
2023/08/13 09:45:02;;;;;;;4.72;1.83;;;25.30;86.20;;;;;;4982968;28;20149;-69
2023/08/13 09:47:29;;;;;;;3.80;1.80;;;25.50;86.80;;;;;;4994167;28;20236;-69
2023/08/13 09:49:58;;;;;;;5.55;1.67;;;25.50;88.50;;;;;;5000267;28;20498;-69
2023/08/13 09:52:27;;;;;;;8.05;2.33;;;25.70;85.20;;;;;;5003639;28;20037;-69
2023/08/13 09:55:03;;;;;;;3.83;1.90;;;25.80;89.20;;;;;;4992548;28;20122;-69
2023/08/13 09:57:32;;;;;;;5.90;1.70;;;25.90;84.40;;;;;;4999693;28;20097;-69
2023/08/13 09:59:59;;;;;;;2.92;1.75;;;25.90;82.60;;;;;;4987351;28;20033;-68
2023/08/13 10:02:27;;;;;;;6.53;1.85;;;25.70;84.20;;;;;;4986265;28;20057;-68
2023/08/13 10:04:53;;;;;;;6.78;1.83;;;25.70;84.60;;;;;;4991529;28;20080;-68
2023/08/13 10:07:20;;;;;;;6.68;1.60;;;25.70;82.50;;;;;;4993616;28;20038;-68
2023/08/13 10:09:46;;;;;;;4.35;2.05;;;25.60;82.00;;;;;;4994140;28;20046;-68
2023/08/13 10:12:12;;;;;;;4.70;1.58;;;25.60;82.20;;;;;;4990915;28;20030;-68
2023/08/13 10:14:38;;;;;;;5.65;1.77;;;25.70;81.80;;;;;;4993920;28;20771;-68
2023/08/13 10:17:06;;;;;;;3.58;1.60;;;25.60;82.90;;;;;;4985600;28;20046;-69
2023/08/13 10:19:44;;;;;;;4.90;1.77;;;25.60;86.20;;;;;;4990685;28;20041;-69
2023/08/13 10:22:11;;;;;;;4.72;1.63;;;25.70;87.00;;;;;;4982732;28;20034;-69
2023/08/13 10:24:38;;;;;;;3.40;1.63;;;25.90;85.50;;;;;;4997333;28;20038;-69
2023/08/13 10:27:04;;;;;;;6.38;1.88;;;26.10;84.80;;;;;;4988889;28;20034;-69
2023/08/13 10:29:40;;;;;;;5.65;1.83;;;26.30;84.50;;;;;;4990530;28;20045;-69
2023/08/13 10:32:14;;;;;;;5.97;1.77;;;26.40;79.80;;;;;;4988213;28;20489;-69
2023/08/13 10:34:47;;;;;;;5.10;2.05;;;26.40;78.30;;;;;;4988625;28;20034;-69
2023/08/13 10:37:19;;;;;;;5.00;1.60;;;26.20;79.40;;;;;;4984792;28;20029;-69
2023/08/13 10:39:54;;;;;;;4.13;1.30;;;26.10;82.60;;;;;;4987154;28;20780;-69
2023/08/13 10:42:26;;;;;;;4.80;1.70;;;26.20;80.10;;;;;;4970684;28;20084;-69
2023/08/13 10:45:06;;;;;;;5.82;1.60;;;26.30;79.30;;;;;;4994575;28;20558;-69
2023/08/13 10:47:38;;;;;;;2.70;1.50;;;26.40;74.20;;;;;;4986660;28;20089;-69
2023/08/13 10:50:23;;;;;;;5.97;1.45;;;26.40;73.00;;;;;;4991484;28;20495;-69
2023/08/13 10:53:05;;;;;;;4.13;1.42;;;26.30;73.60;;;;;;4990268;28;20045;-68
2023/08/13 10:55:33;;;;;;;3.70;1.50;;;26.30;74.10;;;;;;4986718;28;20054;-69
2023/08/13 10:57:59;;;;;;;6.85;1.38;;;26.30;74.40;;;;;;4989384;28;20111;-69
2023/08/13 11:00:26;;;;;;;2.78;1.48;;;26.40;74.40;;;;;;4993850;28;20030;-70
2023/08/13 11:02:57;;;;;;;4.55;1.38;;;26.40;74.40;;;;;;4997410;28;20023;-69
2023/08/13 11:05:23;;;;;;;3.20;1.45;;;26.40;77.10;;;;;;4990046;28;20038;-68
2023/08/13 11:07:51;;;;;;;4.57;1.50;;;26.50;73.90;;;;;;4989477;28;20030;-69
2023/08/13 11:10:18;;;;;;;6.85;1.70;;;26.50;75.70;;;;;;4992036;28;20164;-69
2023/08/13 11:12:48;;;;;;;2.55;1.38;;;26.50;74.50;;;;;;4987047;28;20490;-69
2023/08/13 11:15:15;;;;;;;2.40;1.33;;;26.40;76.50;;;;;;4992823;28;20742;-70
2023/08/13 11:17:46;;;;;;;3.17;1.67;;;26.50;75.40;;;;;;4995146;28;20030;-70
2023/08/13 11:20:13;;;;;;;3.38;1.35;;;26.40;76.60;;;;;;4996107;28;20099;-70
2023/08/13 11:22:40;;;;;;;3.38;1.58;;;26.30;77.60;;;;;;4990396;28;20061;-70
2023/08/13 11:25:08;;;;;;;6.90;1.75;;;26.30;73.90;;;;;;4992700;28;20395;-69
2023/08/13 11:27:35;;;;;;;3.03;1.75;;;26.20;73.90;;;;;;4990472;28;20037;-70
2023/08/13 11:30:01;;;;;;;3.85;1.40;;;26.20;72.70;;;;;;4969710;28;20664;-70
2023/08/13 11:32:27;;;;;;;4.28;1.42;;;26.20;74.80;;;;;;4967992;28;20034;-69
2023/08/13 11:34:53;;;;;;;3.65;1.40;;;26.20;73.60;;;;;;4991307;28;20446;-70
2023/08/13 11:37:19;;;;;;;2.92;1.30;;;26.30;75.40;;;;;;4984959;28;20058;-70
2023/08/13 11:39:45;;;;;;;3.65;1.40;;;26.40;73.40;;;;;;4982561;28;20581;-70
2023/08/13 11:42:11;;;;;;;5.18;1.38;;;26.50;73.60;;;;;;4995945;28;20041;-69
2023/08/13 11:44:36;;;;;;;4.22;1.58;;;26.50;73.90;;;;;;4997210;28;20038;-70
2023/08/13 11:47:05;;;;;;;3.97;1.58;;;26.50;73.80;;;;;;4985313;28;20081;-70
2023/08/13 11:49:39;;;;;;;3.17;1.45;;;26.60;75.10;;;;;;4985309;28;20034;-70
2023/08/13 11:52:06;;;;;;;3.85;1.77;;;26.60;74.10;;;;;;4991848;28;20041;-69
2023/08/13 11:54:34;;;;;;;2.20;1.42;;;26.60;74.20;;;;;;4995306;28;20046;-70
2023/08/13 11:57:01;;;;;;;4.18;1.70;;;26.70;73.40;;;;;;4985333;28;20042;-70
2023/08/13 11:59:29;;;;;;;3.45;1.58;;;26.70;71.50;;;;;;4992739;28;20045;-70
2023/08/13 12:01:56;;;;;;;8.05;1.63;;;26.70;71.00;;;;;;4993342;28;20061;-70
2023/08/13 12:04:23;;;;;;;3.10;1.30;;;26.80;72.20;;;;;;4986395;28;20121;-70
2023/08/13 12:06:51;;;;;;;4.97;1.50;;;26.90;70.40;;;;;;4967926;28;20782;-70
2023/08/13 12:09:18;;;;;;;3.17;1.30;;;27.00;72.20;;;;;;4992484;28;20034;-70
2023/08/13 12:11:43;;;;;;;4.10;1.67;;;26.90;71.10;;;;;;4991867;28;20117;-70
2023/08/13 12:14:10;;;;;;;4.63;1.40;;;27.00;71.50;;;;;;4995691;28;20664;-69
2023/08/13 12:16:35;;;;;;;3.13;1.40;;;26.90;71.70;;;;;;4982605;28;20082;-70
2023/08/13 12:19:05;;;;;;;2.55;1.35;;;27.00;73.20;;;;;;4986789;28;20057;-70
2023/08/13 12:21:31;;;;;;;1.75;1.30;;;27.00;73.80;;;;;;4988291;28;20030;-70
2023/08/13 12:23:56;;;;;;;3.97;1.60;;;27.10;74.40;;;;;;4973045;28;20056;-69
2023/08/13 12:26:22;;;;;;;2.63;1.38;;;27.10;73.90;;;;;;4986824;28;20472;-70
2023/08/13 12:28:50;;;;;;;3.10;1.65;;;27.10;70.60;;;;;;4997063;28;20475;-70
2023/08/13 12:31:20;;;;;;;2.50;1.30;;;27.20;69.50;;;;;;4978833;28;20038;-70
2023/08/13 12:33:46;;;;;;;4.65;1.60;;;27.20;71.30;;;;;;4986105;28;20026;-69
2023/08/13 12:36:12;;;;;;;5.72;1.60;;;27.10;69.10;;;;;;4990821;28;20038;-70
2023/08/13 12:38:40;;;;;;;2.88;1.40;;;27.00;68.50;;;;;;4995004;28;20042;-70
2023/08/13 12:41:07;;;;;;;4.05;1.40;;;27.10;67.90;;;;;;4993478;28;20037;-69
2023/08/13 12:43:35;;;;;;;2.63;1.27;;;27.10;66.20;;;;;;4970662;28;20045;-70
2023/08/13 12:46:03;;;;;;;3.38;1.40;;;27.10;67.30;;;;;;4998412;28;20030;-69
2023/08/13 12:48:28;;;;;;;3.67;1.40;;;27.10;68.40;;;;;;4989995;28;20042;-69